createdAt,value
2023-08-27T00:02:37.272Z,12.20
2023-08-27T00:04:30.420Z,14.00
2023-08-27T00:06:23.478Z,13.50
2023-08-27T00:08:16.733Z,13.90
2023-08-27T00:10:10.641Z,13.50
2023-08-27T00:12:05.083Z,14.20
2023-08-27T00:13:58.644Z,13.30
2023-08-27T00:15:51.780Z,13.10
2023-08-27T00:17:45.405Z,13.20
2023-08-27T00:19:38.616Z,12.00
2023-08-27T00:21:31.608Z,14.20
2023-08-27T00:23:25.376Z,12.50
2023-08-27T00:25:18.688Z,12.30
2023-08-27T00:27:11.739Z,15.30
2023-08-27T00:29:05.200Z,12.10
2023-08-27T00:31:03.649Z,13.80
2023-08-27T00:32:56.858Z,13.00
2023-08-27T00:34:50.290Z,13.00
2023-08-27T00:36:43.548Z,13.20
2023-08-27T00:38:38.856Z,12.20
2023-08-27T00:40:32.103Z,13.90
2023-08-27T00:42:25.158Z,12.50
2023-08-27T00:44:18.203Z,13.70
2023-08-27T00:46:12.223Z,13.20
2023-08-27T00:48:05.685Z,13.50
2023-08-27T00:49:58.996Z,12.30
2023-08-27T00:51:53.588Z,12.00
2023-08-27T00:53:46.634Z,10.40
2023-08-27T00:55:39.886Z,12.40
2023-08-27T00:57:34.664Z,12.80
2023-08-27T00:59:27.864Z,12.70
2023-08-27T01:01:23.994Z,13.20
2023-08-27T01:03:17.271Z,13.40
2023-08-27T01:05:10.465Z,12.60
2023-08-27T01:07:13.090Z,13.60
2023-08-27T01:09:31.792Z,13.80
2023-08-27T01:11:32.631Z,13.70
2023-08-27T01:13:38.167Z,12.70
2023-08-27T01:15:33.049Z,13.20
2023-08-27T01:17:26.546Z,13.00
2023-08-27T01:19:22.035Z,12.80
2023-08-27T01:21:26.015Z,13.50
2023-08-27T01:23:19.194Z,13.50
2023-08-27T01:25:14.245Z,13.60
2023-08-27T01:27:20.651Z,11.90
2023-08-27T01:29:32.445Z,12.90
2023-08-27T01:31:30.033Z,15.20
2023-08-27T01:33:26.996Z,12.30
2023-08-27T01:35:21.067Z,12.00
2023-08-27T01:37:14.680Z,12.80
2023-08-27T01:39:08.552Z,13.70
2023-08-27T01:41:01.603Z,14.50
2023-08-27T01:42:54.858Z,12.10
2023-08-27T01:44:47.914Z,11.70
2023-08-27T01:46:41.002Z,13.50
2023-08-27T01:48:34.112Z,14.30
2023-08-27T01:50:27.265Z,12.60
2023-08-27T01:52:20.413Z,14.60
2023-08-27T01:54:13.364Z,15.10
2023-08-27T01:56:07.295Z,13.00
2023-08-27T01:58:00.283Z,11.30
2023-08-27T01:59:54.158Z,11.80
2023-08-27T02:01:47.204Z,13.70
2023-08-27T02:03:40.256Z,12.80
2023-08-27T02:05:33.407Z,14.20
2023-08-27T02:07:27.593Z,10.80
2023-08-27T02:09:20.636Z,12.20
2023-08-27T02:11:13.690Z,12.60
2023-08-27T02:13:06.738Z,12.70
2023-08-27T02:15:00.720Z,13.40
2023-08-27T02:16:53.770Z,15.30
2023-08-27T02:18:46.818Z,12.80
2023-08-27T02:20:41.197Z,13.40
2023-08-27T02:22:35.092Z,13.70
2023-08-27T02:24:28.120Z,11.60
2023-08-27T02:26:21.062Z,13.60
2023-08-27T02:28:15.865Z,15.20
2023-08-27T02:30:10.037Z,12.90
2023-08-27T02:32:04.134Z,14.00
2023-08-27T02:33:57.160Z,12.10
2023-08-27T02:35:51.790Z,11.50
2023-08-27T02:37:45.614Z,13.30
2023-08-27T02:39:38.678Z,16.50
2023-08-27T02:41:32.737Z,15.70
2023-08-27T02:43:25.890Z,14.60
2023-08-27T02:45:21.292Z,15.90
2023-08-27T02:47:14.470Z,12.00
2023-08-27T02:49:07.707Z,11.70
2023-08-27T02:51:00.755Z,11.00
2023-08-27T02:52:53.756Z,13.10
2023-08-27T02:54:46.955Z,14.20
2023-08-27T02:56:39.958Z,14.00
2023-08-27T02:58:33.173Z,13.70
2023-08-27T03:00:26.774Z,12.30
2023-08-27T03:02:19.879Z,12.90
2023-08-27T03:04:13.135Z,14.40
2023-08-27T03:06:06.185Z,12.60
2023-08-27T03:07:59.951Z,15.50
2023-08-27T03:09:52.897Z,13.10
2023-08-27T03:11:45.956Z,12.60
2023-08-27T03:13:39.209Z,12.70
2023-08-27T03:15:32.150Z,13.60
2023-08-27T03:17:25.268Z,13.00
2023-08-27T03:19:18.461Z,12.70
2023-08-27T03:21:11.613Z,13.10
2023-08-27T03:23:04.671Z,13.80
2023-08-27T03:25:01.753Z,12.60
2023-08-27T03:26:55.678Z,14.20
2023-08-27T03:28:48.730Z,13.50
2023-08-27T03:30:41.826Z,20.50
2023-08-27T03:32:34.942Z,21.40
2023-08-27T03:34:28.195Z,25.10
2023-08-27T03:36:21.389Z,23.90
2023-08-27T03:38:14.392Z,15.70
2023-08-27T03:40:07.987Z,13.70
2023-08-27T03:42:01.681Z,15.30
2023-08-27T03:43:54.671Z,13.40
2023-08-27T03:45:47.828Z,12.00
2023-08-27T03:47:40.908Z,14.60
2023-08-27T03:49:34.851Z,14.00
2023-08-27T03:51:32.297Z,13.90
2023-08-27T03:53:25.456Z,12.10
2023-08-27T03:55:18.917Z,15.40
2023-08-27T03:57:12.382Z,14.20
2023-08-27T03:59:06.568Z,13.80
2023-08-27T04:01:00.457Z,12.60
2023-08-27T04:02:53.602Z,15.00
2023-08-27T04:04:46.829Z,12.80
2023-08-27T04:06:40.517Z,16.30
2023-08-27T04:08:33.649Z,14.10
2023-08-27T04:10:26.856Z,13.80
2023-08-27T04:12:19.951Z,13.70
2023-08-27T04:14:12.912Z,14.90
2023-08-27T04:16:08.169Z,14.90
2023-08-27T04:18:02.134Z,14.20
2023-08-27T04:19:57.070Z,18.40
2023-08-27T04:21:50.019Z,12.10
2023-08-27T04:23:42.968Z,15.60
2023-08-27T04:25:36.018Z,17.30
2023-08-27T04:27:29.330Z,15.70
2023-08-27T04:29:22.733Z,16.70
2023-08-27T04:31:17.763Z,12.60
2023-08-27T04:33:13.866Z,14.80
2023-08-27T04:35:07.215Z,15.40
2023-08-27T04:37:02.326Z,13.20
2023-08-27T04:38:55.359Z,12.00
2023-08-27T04:40:53.344Z,13.90
2023-08-27T04:42:46.706Z,12.90
2023-08-27T04:44:39.737Z,16.80
2023-08-27T04:46:33.014Z,18.20
2023-08-27T04:48:26.042Z,15.20
2023-08-27T04:50:19.399Z,15.40
2023-08-27T04:52:26.094Z,14.00
2023-08-27T04:54:24.750Z,14.60
2023-08-27T04:56:18.113Z,13.60
2023-08-27T04:58:11.465Z,12.70
2023-08-27T05:00:08.779Z,12.40
2023-08-27T05:02:01.872Z,16.60
2023-08-27T05:03:54.970Z,13.50
2023-08-27T05:05:48.037Z,12.80
2023-08-27T05:07:41.018Z,13.20
2023-08-27T05:09:34.070Z,14.30
2023-08-27T05:11:26.962Z,14.10
2023-08-27T05:13:21.372Z,12.70
2023-08-27T05:15:14.451Z,15.20
2023-08-27T05:17:07.504Z,14.20
2023-08-27T05:19:00.771Z,14.40
2023-08-27T05:20:54.014Z,14.60
2023-08-27T05:22:47.067Z,12.30
2023-08-27T05:24:40.113Z,12.60
2023-08-27T05:26:33.327Z,19.90
2023-08-27T05:28:27.136Z,13.80
2023-08-27T05:30:20.130Z,13.10
2023-08-27T05:32:13.132Z,15.20
2023-08-27T05:34:08.026Z,12.90
2023-08-27T05:36:01.283Z,16.70
2023-08-27T05:37:54.235Z,15.00
2023-08-27T05:39:47.385Z,13.20
2023-08-27T05:41:40.437Z,11.70
2023-08-27T05:43:35.438Z,12.80
2023-08-27T05:45:28.452Z,15.30
2023-08-27T05:47:21.738Z,13.30
2023-08-27T05:49:14.747Z,12.20
2023-08-27T05:51:08.147Z,16.00
2023-08-27T05:53:05.258Z,11.40
2023-08-27T05:54:59.204Z,11.40
2023-08-27T05:56:52.217Z,12.20
2023-08-27T05:58:45.682Z,16.80
2023-08-27T06:00:38.724Z,12.60
2023-08-27T06:02:31.914Z,11.80
2023-08-27T06:04:25.642Z,12.40
2023-08-27T06:06:18.702Z,12.50
2023-08-27T06:08:11.747Z,13.30
2023-08-27T06:10:05.225Z,12.20
2023-08-27T06:11:59.999Z,11.20
2023-08-27T06:13:53.046Z,12.40
2023-08-27T06:15:46.672Z,11.40
2023-08-27T06:17:39.767Z,11.10
2023-08-27T06:19:46.553Z,12.30
2023-08-27T06:21:41.636Z,10.50
2023-08-27T06:23:35.808Z,13.90
2023-08-27T06:25:28.768Z,12.10
2023-08-27T06:27:21.810Z,13.00
2023-08-27T06:29:14.860Z,10.60
2023-08-27T06:31:08.343Z,9.70
2023-08-27T06:33:02.725Z,11.20
2023-08-27T06:34:56.369Z,10.90
2023-08-27T06:36:49.622Z,11.80
2023-08-27T06:38:44.003Z,10.70
2023-08-27T06:40:37.873Z,11.10
2023-08-27T06:42:31.750Z,11.70
2023-08-27T06:44:25.728Z,16.30
2023-08-27T06:46:21.751Z,13.30
2023-08-27T06:48:15.110Z,10.10
2023-08-27T06:50:08.450Z,11.90
2023-08-27T06:52:01.398Z,10.70
2023-08-27T06:53:56.096Z,10.90
2023-08-27T06:55:50.066Z,11.10
2023-08-27T06:57:43.062Z,11.90
2023-08-27T06:59:37.430Z,12.50
2023-08-27T07:01:30.684Z,10.30
2023-08-27T07:03:24.458Z,11.80
2023-08-27T07:05:18.497Z,11.10
2023-08-27T07:07:11.540Z,11.30
2023-08-27T07:09:06.126Z,11.50
2023-08-27T07:10:59.281Z,10.80
2023-08-27T07:12:53.967Z,13.20
2023-08-27T07:14:47.021Z,13.10
2023-08-27T07:16:40.072Z,12.10
2023-08-27T07:18:33.177Z,13.20
2023-08-27T07:20:26.278Z,12.70
2023-08-27T07:22:19.222Z,14.50
2023-08-27T07:24:15.151Z,11.40
2023-08-27T07:26:08.205Z,12.20
2023-08-27T07:28:01.516Z,11.10
2023-08-27T07:29:55.212Z,11.10
2023-08-27T07:31:48.293Z,11.70
2023-08-27T07:33:41.518Z,11.90
2023-08-27T07:35:34.581Z,14.20
2023-08-27T07:37:27.567Z,13.40
2023-08-27T07:39:20.880Z,12.30
2023-08-27T07:41:15.062Z,10.90
2023-08-27T07:43:08.767Z,10.50
2023-08-27T07:45:03.319Z,12.00
2023-08-27T07:46:56.486Z,11.50
2023-08-27T07:48:49.620Z,11.90
2023-08-27T07:50:43.392Z,10.20
2023-08-27T07:52:37.146Z,11.70
2023-08-27T07:54:30.402Z,10.50
2023-08-27T07:56:25.504Z,10.60
2023-08-27T07:58:18.656Z,11.50
2023-08-27T08:00:14.792Z,13.20
2023-08-27T08:02:07.829Z,9.90
2023-08-27T08:04:01.204Z,13.80
2023-08-27T08:05:54.747Z,11.80
2023-08-27T08:07:47.798Z,13.10
2023-08-27T08:09:40.855Z,10.60
2023-08-27T08:11:33.744Z,12.10
2023-08-27T08:13:27.078Z,13.20
2023-08-27T08:15:20.306Z,11.50
2023-08-27T08:17:13.482Z,12.10
2023-08-27T08:19:06.405Z,11.20
2023-08-27T08:21:01.457Z,12.30
2023-08-27T08:22:54.524Z,11.10
2023-08-27T08:24:48.252Z,13.70
2023-08-27T08:26:41.328Z,14.30
2023-08-27T08:28:36.071Z,12.70
2023-08-27T08:30:29.117Z,11.60
2023-08-27T08:32:22.168Z,13.00
2023-08-27T08:34:15.931Z,12.30
2023-08-27T08:36:08.982Z,13.70
2023-08-27T08:38:02.339Z,13.00
2023-08-27T08:39:56.206Z,11.50
2023-08-27T08:42:00.008Z,11.70
2023-08-27T08:44:09.344Z,13.20
2023-08-27T08:46:07.107Z,12.60
2023-08-27T08:48:03.616Z,13.50
2023-08-27T08:49:59.859Z,14.20
2023-08-27T08:51:58.747Z,14.10
2023-08-27T08:53:54.428Z,13.00
2023-08-27T08:55:51.006Z,11.40
2023-08-27T08:57:52.565Z,16.10
2023-08-27T08:59:47.241Z,13.50
2023-08-27T09:01:40.848Z,15.10
2023-08-27T09:03:36.258Z,12.30
2023-08-27T09:05:30.937Z,16.10
2023-08-27T09:07:25.286Z,13.80
2023-08-27T09:09:23.234Z,13.80
2023-08-27T09:13:11.736Z,14.30
2023-08-27T09:15:05.302Z,14.40
2023-08-27T09:16:58.817Z,13.30
2023-08-27T09:18:51.871Z,13.40
2023-08-27T09:20:45.131Z,15.20
2023-08-27T09:22:38.790Z,14.30
2023-08-27T09:24:31.937Z,14.80
2023-08-27T09:26:25.349Z,14.50
2023-08-27T09:28:19.594Z,14.20
2023-08-27T09:30:14.011Z,13.60
2023-08-27T09:32:07.530Z,16.30
2023-08-27T09:34:00.893Z,13.30
2023-08-27T09:35:54.343Z,13.90
2023-08-27T09:37:48.519Z,12.30
2023-08-27T09:39:45.983Z,12.30
2023-08-27T09:41:44.269Z,13.90
2023-08-27T09:43:37.299Z,13.00
2023-08-27T09:45:30.250Z,12.30
2023-08-27T09:47:31.873Z,12.20
2023-08-27T09:49:25.356Z,13.80
2023-08-27T09:51:18.815Z,12.40
2023-08-27T09:53:13.930Z,14.10
2023-08-27T09:55:15.349Z,15.60
2023-08-27T09:57:18.599Z,12.30
2023-08-27T09:59:11.710Z,12.00
2023-08-27T10:01:04.814Z,12.60
2023-08-27T10:02:58.803Z,13.30
2023-08-27T10:04:56.288Z,12.00
2023-08-27T10:06:49.610Z,12.60
2023-08-27T10:08:52.550Z,13.10
2023-08-27T10:10:48.257Z,12.80
2023-08-27T10:12:43.999Z,14.30
2023-08-27T10:14:42.924Z,11.80
2023-08-27T10:16:41.529Z,10.90
2023-08-27T10:18:39.739Z,11.90
2023-08-27T10:20:35.923Z,12.00
2023-08-27T10:22:31.218Z,12.90
2023-08-27T10:24:27.266Z,14.30
2023-08-27T10:26:24.963Z,12.50
2023-08-27T10:28:21.172Z,11.90
2023-08-27T10:30:17.104Z,12.90
2023-08-27T10:32:12.190Z,12.90
2023-08-27T10:34:07.344Z,11.20
2023-08-27T10:36:05.460Z,11.00
2023-08-27T10:37:59.229Z,10.90
2023-08-27T10:39:55.114Z,11.40
2023-08-27T10:41:48.544Z,10.70
2023-08-27T10:43:41.654Z,11.40
2023-08-27T10:45:39.174Z,11.00
2023-08-27T10:47:32.336Z,10.60
2023-08-27T10:49:25.368Z,9.80
2023-08-27T10:51:19.688Z,10.60
2023-08-27T10:53:14.416Z,10.20
2023-08-27T10:55:07.817Z,11.90
2023-08-27T10:57:22.804Z,11.40
2023-08-27T10:59:32.126Z,10.70
2023-08-27T11:01:26.985Z,11.90
2023-08-27T11:03:24.466Z,10.70
2023-08-27T11:05:28.213Z,10.90
2023-08-27T11:07:24.483Z,13.80
2023-08-27T11:09:47.812Z,13.60
2023-08-27T11:14:47.967Z,12.40
2023-08-27T11:16:47.020Z,10.90
2023-08-27T11:18:50.661Z,13.20
2023-08-27T11:20:46.162Z,11.70
2023-08-27T11:23:09.417Z,11.90
2023-08-27T11:25:03.757Z,12.80
2023-08-27T11:27:22.317Z,11.80
2023-08-27T11:29:25.533Z,10.60
2023-08-27T11:31:21.229Z,12.30
2023-08-27T11:33:17.078Z,9.70
2023-08-27T11:35:13.394Z,14.50
2023-08-27T11:37:07.625Z,10.90
2023-08-27T11:39:07.396Z,11.10
2023-08-27T11:41:00.812Z,9.40
2023-08-27T11:42:56.355Z,11.00
2023-08-27T11:44:53.972Z,9.70
2023-08-27T11:46:48.376Z,10.70
2023-08-27T11:48:49.513Z,11.60
2023-08-27T11:50:44.347Z,11.50
2023-08-27T11:52:38.062Z,11.90
2023-08-27T11:54:33.202Z,11.30
2023-08-27T11:56:28.355Z,12.60
2023-08-27T11:58:21.748Z,12.70
2023-08-27T12:00:15.996Z,13.00
2023-08-27T12:02:13.102Z,10.70
2023-08-27T12:04:06.633Z,12.10
2023-08-27T12:05:59.683Z,11.50
2023-08-27T12:07:52.638Z,12.40
2023-08-27T12:09:51.936Z,11.70
2023-08-27T12:11:45.080Z,11.50
2023-08-27T12:13:40.514Z,10.50
2023-08-27T12:15:37.323Z,12.80
2023-08-27T12:17:35.195Z,11.70
2023-08-27T12:19:28.447Z,11.10
2023-08-27T12:21:23.094Z,12.40
2023-08-27T12:23:17.315Z,10.70
2023-08-27T12:25:10.771Z,12.60
2023-08-27T12:27:09.430Z,10.90
2023-08-27T12:29:02.453Z,11.50
2023-08-27T12:30:58.956Z,12.50
2023-08-27T12:32:56.290Z,10.00
2023-08-27T12:34:51.588Z,11.00
2023-08-27T12:36:44.540Z,11.00
2023-08-27T12:38:37.587Z,11.70
2023-08-27T12:40:30.640Z,12.90
2023-08-27T12:42:26.696Z,11.20
2023-08-27T12:44:20.018Z,10.30
2023-08-27T12:46:13.106Z,13.80
2023-08-27T12:48:06.560Z,14.40
2023-08-27T12:49:59.987Z,13.50
2023-08-27T12:51:55.504Z,12.20
2023-08-27T12:53:48.549Z,13.00
2023-08-27T12:55:41.701Z,12.60
2023-08-27T12:57:34.759Z,11.30
2023-08-27T12:59:28.237Z,13.50
2023-08-27T13:01:21.488Z,10.20
2023-08-27T13:03:14.678Z,11.20
2023-08-27T13:05:08.596Z,12.00
2023-08-27T13:07:01.545Z,13.40
2023-08-27T13:08:54.593Z,12.30
2023-08-27T13:10:47.642Z,11.20
2023-08-27T13:12:40.590Z,12.70
2023-08-27T13:14:33.553Z,11.60
2023-08-27T13:16:28.411Z,12.10
2023-08-27T13:18:22.886Z,13.10
2023-08-27T13:20:17.301Z,13.20
2023-08-27T13:22:10.862Z,12.50
2023-08-27T13:24:05.201Z,13.10
2023-08-27T13:25:58.203Z,11.70
2023-08-27T13:27:51.245Z,15.40
2023-08-27T13:29:44.300Z,12.70
2023-08-27T13:31:38.943Z,12.60
2023-08-27T13:33:32.184Z,13.30
2023-08-27T13:35:25.818Z,12.10
2023-08-27T13:37:18.799Z,13.90
2023-08-27T13:39:12.209Z,12.40
2023-08-27T13:41:05.592Z,14.60
2023-08-27T13:42:58.619Z,13.50
2023-08-27T13:44:51.873Z,11.90
2023-08-27T13:46:44.819Z,12.90
2023-08-27T13:48:38.074Z,14.00
2023-08-27T13:50:31.586Z,13.10
2023-08-27T13:52:25.713Z,13.10
2023-08-27T13:54:18.771Z,12.10
2023-08-27T13:56:11.815Z,12.70
2023-08-27T13:58:05.067Z,14.10
2023-08-27T13:59:58.430Z,14.40
2023-08-27T14:01:51.528Z,13.30
2023-08-27T14:03:44.680Z,13.90
2023-08-27T14:05:37.986Z,13.20
2023-08-27T14:07:30.938Z,13.60
2023-08-27T14:09:23.985Z,13.70
2023-08-27T14:11:16.935Z,14.10
2023-08-27T14:13:10.797Z,14.10
2023-08-27T14:15:05.070Z,14.60
2023-08-27T14:16:58.132Z,13.20
2023-08-27T14:18:51.188Z,14.00
2023-08-27T14:20:44.246Z,14.30
2023-08-27T14:22:37.288Z,14.40
2023-08-27T14:24:30.338Z,14.20
2023-08-27T14:26:23.396Z,13.90
2023-08-27T14:28:16.477Z,14.70
2023-08-27T14:30:10.626Z,15.60
2023-08-27T14:32:06.554Z,14.80
2023-08-27T14:34:09.636Z,15.00
2023-08-27T14:36:02.623Z,15.20
2023-08-27T14:37:55.717Z,16.70
2023-08-27T14:39:48.776Z,17.20
2023-08-27T14:41:42.335Z,15.80
2023-08-27T14:43:35.279Z,18.00
2023-08-27T14:45:28.330Z,18.20
2023-08-27T14:47:21.391Z,16.40
2023-08-27T14:49:14.432Z,17.70
2023-08-27T14:51:07.480Z,16.50
2023-08-27T14:53:00.537Z,16.10
2023-08-27T14:54:53.789Z,17.60
2023-08-27T14:56:47.259Z,18.80
2023-08-27T14:58:46.034Z,20.80
2023-08-27T15:00:39.674Z,17.30
2023-08-27T15:02:32.865Z,16.20
2023-08-27T15:04:26.052Z,19.80
2023-08-27T15:06:19.614Z,18.60
2023-08-27T15:08:13.391Z,18.30
2023-08-27T15:10:08.104Z,17.20
2023-08-27T15:12:02.097Z,18.90
2023-08-27T15:13:55.095Z,19.70
2023-08-27T15:15:48.227Z,18.20
2023-08-27T15:17:43.437Z,17.90
2023-08-27T15:19:36.452Z,16.00
2023-08-27T15:21:29.400Z,14.80
2023-08-27T15:23:22.449Z,12.10
2023-08-27T15:25:15.511Z,14.40
2023-08-27T15:27:08.657Z,14.70
2023-08-27T15:29:01.711Z,13.50
2023-08-27T15:30:55.007Z,14.00
2023-08-27T15:32:49.236Z,12.30
2023-08-27T15:34:42.302Z,13.40
2023-08-27T15:36:35.294Z,14.20
2023-08-27T15:38:28.293Z,13.20
2023-08-27T15:40:21.345Z,11.70
2023-08-27T15:42:14.391Z,13.20
2023-08-27T15:44:07.852Z,12.40
2023-08-27T15:46:01.267Z,12.70
2023-08-27T15:47:54.395Z,12.00
2023-08-27T15:49:47.929Z,14.60
2023-08-27T15:51:41.536Z,13.00
2023-08-27T15:53:34.646Z,12.90
2023-08-27T15:55:27.704Z,13.60
2023-08-27T15:57:20.740Z,13.70
2023-08-27T15:59:13.897Z,14.90
2023-08-27T16:01:07.208Z,17.10
2023-08-27T16:03:00.388Z,15.10
2023-08-27T16:04:53.768Z,20.00
2023-08-27T16:06:47.632Z,20.40
2023-08-27T16:08:41.551Z,18.80
2023-08-27T16:10:38.710Z,18.80
2023-08-27T16:12:32.114Z,17.40
2023-08-27T16:14:25.465Z,19.50
2023-08-27T16:16:18.710Z,21.30
2023-08-27T16:18:12.388Z,23.30
2023-08-27T16:20:06.982Z,22.60
2023-08-27T16:22:00.029Z,18.90
2023-08-27T16:23:54.223Z,22.20
2023-08-27T16:25:48.047Z,19.90
2023-08-27T16:27:41.539Z,24.60
2023-08-27T16:29:34.790Z,25.10
2023-08-27T16:31:28.143Z,20.50
2023-08-27T16:33:21.409Z,21.10
2023-08-27T16:35:14.554Z,19.60
2023-08-27T16:37:07.604Z,24.70
2023-08-27T16:39:00.728Z,20.10
2023-08-27T16:40:53.912Z,20.50
2023-08-27T16:42:47.064Z,21.00
2023-08-27T16:44:40.319Z,22.20
2023-08-27T16:46:33.419Z,21.70
2023-08-27T16:48:28.687Z,21.40
2023-08-27T16:50:32.836Z,21.60
2023-08-27T16:52:26.241Z,18.10
2023-08-27T16:54:22.574Z,19.90
2023-08-27T16:56:15.794Z,20.50
2023-08-27T16:58:10.053Z,17.80
2023-08-27T17:00:05.212Z,20.80
2023-08-27T17:01:58.602Z,19.40
2023-08-27T17:03:52.287Z,23.60
2023-08-27T17:05:47.026Z,22.40
2023-08-27T17:07:40.182Z,23.30
2023-08-27T17:09:33.957Z,25.20
2023-08-27T17:11:26.990Z,27.40
2023-08-27T17:13:20.434Z,24.00
2023-08-27T17:15:14.471Z,20.20
2023-08-27T17:17:09.012Z,21.30
2023-08-27T17:19:02.963Z,16.70
2023-08-27T17:20:56.996Z,17.80
2023-08-27T17:22:51.439Z,17.80
2023-08-27T17:24:45.043Z,16.20
2023-08-27T17:26:38.813Z,17.30
2023-08-27T17:28:32.222Z,16.30
2023-08-27T17:30:25.518Z,12.80
2023-08-27T17:32:18.734Z,13.10
2023-08-27T17:34:12.252Z,14.60
2023-08-27T17:36:06.213Z,16.20
2023-08-27T17:37:59.934Z,15.60
2023-08-27T17:39:54.417Z,16.40
2023-08-27T17:41:51.171Z,14.10
2023-08-27T17:43:44.736Z,14.40
2023-08-27T17:45:38.212Z,15.40
2023-08-27T17:47:32.786Z,21.40
2023-08-27T17:49:26.228Z,19.10
2023-08-27T17:51:19.791Z,18.10
2023-08-27T17:53:13.353Z,16.60
2023-08-27T17:55:07.320Z,16.30
2023-08-27T17:57:00.894Z,16.80
2023-08-27T17:58:54.447Z,15.90
2023-08-27T18:00:47.874Z,17.60
2023-08-27T18:02:41.892Z,22.20
2023-08-27T18:04:35.393Z,24.90
2023-08-27T18:06:29.655Z,22.10
2023-08-27T18:08:23.740Z,19.90
2023-08-27T18:10:17.578Z,21.20
2023-08-27T18:12:11.248Z,24.30
2023-08-27T18:14:05.117Z,22.30
2023-08-27T18:15:59.375Z,28.70
2023-08-27T18:17:53.914Z,24.90
2023-08-27T18:19:48.571Z,27.40
2023-08-27T18:21:43.293Z,24.70
2023-08-27T18:23:37.566Z,21.90
2023-08-27T18:25:32.813Z,21.10
2023-08-27T18:27:27.666Z,23.20
2023-08-27T18:29:23.382Z,18.20
2023-08-27T18:31:18.322Z,20.80
2023-08-27T18:33:14.271Z,19.50
2023-08-27T18:35:09.503Z,20.50
2023-08-27T18:37:03.771Z,15.50
2023-08-27T18:38:58.340Z,17.10
2023-08-27T18:40:58.437Z,18.00
2023-08-27T18:42:54.819Z,17.50
2023-08-27T18:44:49.590Z,16.90
2023-08-27T18:46:44.856Z,18.80
2023-08-27T18:48:40.600Z,18.60
2023-08-27T18:50:35.741Z,17.20
2023-08-27T18:52:30.168Z,16.40
2023-08-27T18:54:29.028Z,19.20
2023-08-27T18:56:25.060Z,16.90
2023-08-27T18:58:21.334Z,16.30
2023-08-27T19:02:16.047Z,17.00
2023-08-27T19:04:11.436Z,16.30
2023-08-27T19:06:07.083Z,19.10
2023-08-27T19:08:03.459Z,16.70
2023-08-27T19:10:01.870Z,16.80
2023-08-27T19:12:01.444Z,16.80
2023-08-27T19:13:58.158Z,16.60
2023-08-27T19:15:56.760Z,19.80
2023-08-27T19:17:55.766Z,18.30
2023-08-27T19:19:55.940Z,17.60
2023-08-27T19:21:50.082Z,18.30
2023-08-27T19:23:44.949Z,19.70
2023-08-27T19:25:40.878Z,18.80
2023-08-27T19:27:36.645Z,18.10
2023-08-27T19:29:31.678Z,20.10
2023-08-27T19:31:36.639Z,15.60
2023-08-27T19:33:40.414Z,17.40
2023-08-27T19:35:35.202Z,16.10
2023-08-27T19:37:29.892Z,14.70
2023-08-27T19:39:24.794Z,15.00
2023-08-27T19:41:21.062Z,15.80
2023-08-27T19:43:18.094Z,15.70
2023-08-27T19:47:07.941Z,16.50
2023-08-27T19:49:04.051Z,18.10
2023-08-27T19:51:00.941Z,17.00
2023-08-27T19:53:01.364Z,17.40
2023-08-27T19:54:58.084Z,16.80
2023-08-27T19:56:55.780Z,18.00
2023-08-27T19:58:49.969Z,18.90
2023-08-27T20:00:45.701Z,19.50
2023-08-27T20:02:40.438Z,16.70
2023-08-27T20:04:35.507Z,18.00
2023-08-27T20:06:30.606Z,18.00
2023-08-27T20:08:24.655Z,17.40
2023-08-27T20:10:18.728Z,19.30
2023-08-27T20:12:13.236Z,17.40
2023-08-27T20:14:08.212Z,18.60
2023-08-27T20:16:03.258Z,18.60
2023-08-27T20:17:57.034Z,18.40
2023-08-27T20:19:50.819Z,17.40
2023-08-27T20:21:44.328Z,20.50
2023-08-27T20:23:37.535Z,18.60
2023-08-27T20:25:31.006Z,18.00
2023-08-27T20:27:24.782Z,17.80
2023-08-27T20:29:25.185Z,18.40
2023-08-27T20:31:18.685Z,20.50
2023-08-27T20:33:12.061Z,21.60
2023-08-27T20:35:06.842Z,19.90
2023-08-27T20:37:00.254Z,21.90
2023-08-27T20:38:54.331Z,27.00
2023-08-27T20:40:47.815Z,21.20
2023-08-27T20:42:43.039Z,19.90
2023-08-27T20:44:36.563Z,19.00
2023-08-27T20:46:30.278Z,21.50
2023-08-27T20:48:23.483Z,19.70
2023-08-27T20:50:17.959Z,18.10
2023-08-27T20:52:11.109Z,18.70
2023-08-27T20:54:11.944Z,20.40
2023-08-27T20:56:05.408Z,21.30
2023-08-27T20:57:58.545Z,20.90
2023-08-27T20:59:51.808Z,19.50
2023-08-27T21:01:48.746Z,21.00
2023-08-27T21:03:42.831Z,19.60
2023-08-27T21:05:40.288Z,19.90
2023-08-27T21:07:34.463Z,21.90
2023-08-27T21:09:27.717Z,19.90
2023-08-27T21:11:21.070Z,22.00
2023-08-27T21:13:14.126Z,20.50
2023-08-27T21:15:07.790Z,20.30
2023-08-27T21:17:00.942Z,20.30
2023-08-27T21:18:54.573Z,21.80
2023-08-27T21:20:53.595Z,18.90
2023-08-27T21:22:46.543Z,20.20
2023-08-27T21:24:39.805Z,21.40
2023-08-27T21:26:33.364Z,19.10
2023-08-27T21:28:26.413Z,20.90
2023-08-27T21:30:19.828Z,20.70
2023-08-27T21:32:12.969Z,24.40
2023-08-27T21:34:06.094Z,22.80
2023-08-27T21:35:59.194Z,22.90
2023-08-27T21:37:52.498Z,23.70
2023-08-27T21:39:47.112Z,27.60
2023-08-27T21:41:45.761Z,21.90
2023-08-27T21:43:39.730Z,26.50
2023-08-27T21:45:33.837Z,26.30
2023-08-27T21:47:26.838Z,24.90
2023-08-27T21:49:22.981Z,25.90
2023-08-27T21:51:16.077Z,22.80
2023-08-27T21:53:09.097Z,25.10
2023-08-27T21:55:02.228Z,20.10
2023-08-27T21:56:55.282Z,22.60
2023-08-27T21:58:48.330Z,22.10
2023-08-27T22:00:41.723Z,21.90
2023-08-27T22:02:36.483Z,22.70
2023-08-27T22:04:29.641Z,23.50
2023-08-27T22:06:22.694Z,22.80
2023-08-27T22:08:15.734Z,24.50
2023-08-27T22:10:10.142Z,22.10
2023-08-27T22:12:25.184Z,22.10
2023-08-27T22:14:19.267Z,25.10
2023-08-27T22:16:12.929Z,26.00
2023-08-27T22:18:06.008Z,27.30
2023-08-27T22:19:59.944Z,26.80
2023-08-27T22:21:53.509Z,27.40
2023-08-27T22:23:46.558Z,27.50
2023-08-27T22:25:39.506Z,28.30
2023-08-27T22:27:33.171Z,37.30
2023-08-27T22:29:26.338Z,41.40
2023-08-27T22:31:19.392Z,41.70
2023-08-27T22:33:12.692Z,41.10
2023-08-27T22:35:16.154Z,34.70
2023-08-27T22:37:09.585Z,52.50
2023-08-27T22:39:02.747Z,54.30
2023-08-27T22:40:55.628Z,58.00
2023-08-27T22:42:48.634Z,53.00
2023-08-27T22:44:41.690Z,43.40
2023-08-27T22:46:34.973Z,43.20
2023-08-27T22:48:27.930Z,41.40
2023-08-27T22:50:20.938Z,42.70
2023-08-27T22:52:14.501Z,46.40
2023-08-27T22:54:09.304Z,47.20
2023-08-27T22:56:02.294Z,44.00
2023-08-27T22:57:55.294Z,41.70
2023-08-27T22:59:48.343Z,39.30
2023-08-27T23:01:41.290Z,40.60
2023-08-27T23:03:34.454Z,41.80
2023-08-27T23:05:27.495Z,40.70
2023-08-27T23:07:20.631Z,43.10
2023-08-27T23:09:13.705Z,40.80
2023-08-27T23:11:07.372Z,41.20
2023-08-27T23:13:00.514Z,45.50
2023-08-27T23:14:53.978Z,43.00
2023-08-27T23:16:47.055Z,43.60
2023-08-27T23:18:41.483Z,40.30
2023-08-27T23:20:35.382Z,42.40
2023-08-27T23:22:28.742Z,44.10
2023-08-27T23:24:21.995Z,41.50
2023-08-27T23:26:17.609Z,41.60
2023-08-27T23:28:10.909Z,39.30
2023-08-27T23:30:04.679Z,40.80
2023-08-27T23:31:58.292Z,40.00
2023-08-27T23:33:51.345Z,37.00
2023-08-27T23:35:44.395Z,39.00
2023-08-27T23:37:37.555Z,37.50
2023-08-27T23:39:31.005Z,37.70
2023-08-27T23:41:24.159Z,38.80
2023-08-27T23:43:17.217Z,38.60
2023-08-27T23:45:10.781Z,37.40
2023-08-27T23:47:04.769Z,38.30
2023-08-27T23:48:57.795Z,38.50
2023-08-27T23:50:50.862Z,38.20
2023-08-27T23:52:44.451Z,35.00
2023-08-27T23:54:37.463Z,39.40
2023-08-27T23:56:30.512Z,36.90
2023-08-27T23:58:23.560Z,37.10
